createdAt,value
2017-09-25T00:01:02.917Z,95.00
2017-09-25T00:03:31.252Z,94.90
2017-09-25T00:05:58.825Z,94.90
2017-09-25T00:08:26.420Z,94.90
2017-09-25T00:10:54.776Z,95.10
2017-09-25T00:13:23.883Z,95.00
2017-09-25T00:15:52.212Z,94.90
2017-09-25T00:18:19.808Z,94.80
2017-09-25T00:20:47.374Z,94.90
2017-09-25T00:23:15.028Z,95.00
2017-09-25T00:25:42.592Z,95.00
2017-09-25T00:28:10.184Z,95.00
2017-09-25T00:30:37.751Z,95.20
2017-09-25T00:33:05.375Z,95.20
2017-09-25T00:35:33.036Z,95.50
2017-09-25T00:38:02.132Z,95.80
2017-09-25T00:40:29.704Z,95.80
2017-09-25T00:42:57.313Z,95.70
2017-09-25T00:45:24.920Z,95.80
2017-09-25T00:47:52.492Z,95.80
2017-09-25T00:50:20.848Z,96.00
2017-09-25T00:53:00.472Z,96.00
2017-09-25T00:55:28.793Z,96.20
2017-09-25T00:57:57.132Z,96.50
2017-09-25T01:00:36.553Z,96.40
2017-09-25T01:03:16.768Z,96.30
2017-09-25T01:05:56.976Z,96.20
2017-09-25T01:08:24.572Z,96.10
2017-09-25T01:10:52.177Z,96.10
2017-09-25T01:13:19.856Z,96.10
2017-09-25T01:15:47.722Z,96.10
2017-09-25T01:18:15.398Z,96.00
2017-09-25T01:20:43.457Z,95.80
2017-09-25T01:23:11.269Z,95.90
2017-09-25T01:25:39.656Z,95.80
2017-09-25T01:28:07.992Z,95.90
2017-09-25T01:30:35.594Z,95.90
2017-09-25T01:33:04.869Z,95.80
2017-09-25T01:35:32.548Z,95.80
2017-09-25T01:38:02.652Z,95.90
2017-09-25T01:40:30.245Z,95.80
2017-09-25T01:42:58.580Z,95.90
2017-09-25T01:45:26.172Z,95.90
2017-09-25T01:47:53.744Z,95.70
2017-09-25T01:50:22.109Z,95.70
2017-09-25T01:52:49.677Z,95.70
2017-09-25T01:55:18.077Z,95.60
2017-09-25T01:57:45.675Z,95.60
2017-09-25T02:00:13.251Z,95.50
2017-09-25T02:02:40.927Z,95.40
2017-09-25T02:05:08.499Z,95.40
2017-09-25T02:07:36.165Z,95.50
2017-09-25T02:10:04.723Z,96.10
2017-09-25T02:12:32.620Z,96.10
2017-09-25T02:15:01.878Z,96.10
2017-09-25T02:17:29.456Z,96.10
2017-09-25T02:19:57.068Z,96.00
2017-09-25T02:22:24.680Z,96.20
2017-09-25T02:24:52.296Z,96.30
2017-09-25T02:27:19.864Z,96.20
2017-09-25T02:29:47.429Z,96.00
2017-09-25T02:32:15.025Z,95.90
2017-09-25T02:34:42.596Z,95.90
2017-09-25T02:37:10.977Z,95.90
2017-09-25T02:39:38.648Z,95.80
2017-09-25T02:42:06.988Z,96.00
2017-09-25T02:44:34.580Z,95.90
2017-09-25T02:47:03.996Z,96.10
2017-09-25T02:49:32.652Z,96.10
2017-09-25T02:52:01.144Z,96.10
2017-09-25T02:54:28.733Z,96.20
2017-09-25T02:56:57.067Z,96.00
2017-09-25T02:59:24.661Z,96.00
2017-09-25T03:01:52.996Z,95.80
2017-09-25T03:04:20.600Z,95.80
2017-09-25T03:06:48.940Z,95.90
2017-09-25T03:09:16.572Z,95.70
2017-09-25T03:11:44.145Z,95.60
2017-09-25T03:14:11.752Z,95.50
2017-09-25T03:16:39.327Z,95.40
2017-09-25T03:19:08.073Z,95.20
2017-09-25T03:21:35.644Z,95.20
2017-09-25T03:24:04.660Z,95.00
2017-09-25T03:26:32.312Z,95.00
2017-09-25T03:28:59.884Z,95.00
2017-09-25T03:31:27.535Z,94.90
2017-09-25T03:33:55.540Z,94.90
2017-09-25T03:36:23.900Z,94.90
2017-09-25T03:38:52.237Z,94.90
2017-09-25T03:41:19.845Z,94.90
2017-09-25T03:43:48.181Z,94.80
2017-09-25T03:46:16.057Z,94.80
2017-09-25T03:48:43.652Z,94.90
2017-09-25T03:51:11.988Z,95.10
2017-09-25T03:53:39.588Z,95.10
2017-09-25T03:56:07.168Z,95.20
2017-09-25T03:58:35.626Z,95.50
2017-09-25T04:01:04.588Z,95.60
2017-09-25T04:03:32.272Z,95.60
2017-09-25T04:06:02.268Z,95.50
2017-09-25T04:08:29.840Z,95.50
2017-09-25T04:10:57.436Z,95.40
2017-09-25T04:13:25.796Z,95.40
2017-09-25T04:15:53.460Z,95.40
2017-09-25T04:18:21.125Z,95.40
2017-09-25T04:20:48.725Z,95.40
2017-09-25T04:23:16.328Z,95.40
2017-09-25T04:25:43.928Z,95.40
2017-09-25T04:28:12.269Z,95.50
2017-09-25T04:30:39.860Z,95.50
2017-09-25T04:33:08.203Z,95.50
2017-09-25T04:35:36.297Z,95.50
2017-09-25T04:38:04.780Z,95.50
2017-09-25T04:40:33.861Z,95.30
2017-09-25T04:43:03.896Z,95.50
2017-09-25T04:45:31.556Z,95.50
2017-09-25T04:47:59.420Z,95.30
2017-09-25T04:50:27.756Z,95.20
2017-09-25T04:52:55.520Z,95.20
2017-09-25T04:55:23.128Z,95.10
2017-09-25T04:57:50.717Z,95.20
2017-09-25T05:00:19.079Z,95.20
2017-09-25T05:02:47.415Z,95.30
2017-09-25T05:05:15.108Z,95.20
2017-09-25T05:07:42.681Z,95.10
2017-09-25T05:10:11.152Z,94.90
2017-09-25T05:12:39.489Z,94.80
2017-09-25T05:15:07.199Z,94.80
2017-09-25T05:17:34.777Z,94.80
2017-09-25T05:20:04.948Z,94.80
2017-09-25T05:22:32.517Z,94.80
2017-09-25T05:25:01.116Z,94.80
2017-09-25T05:27:28.716Z,94.80
2017-09-25T05:29:56.284Z,94.80
2017-09-25T05:32:23.885Z,94.80
2017-09-25T05:34:51.560Z,94.80
2017-09-25T05:37:19.155Z,94.80
2017-09-25T05:39:47.487Z,94.90
2017-09-25T05:42:15.080Z,95.20
2017-09-25T05:44:43.416Z,95.00
2017-09-25T05:47:11.008Z,94.90
2017-09-25T05:49:38.593Z,94.90
2017-09-25T05:52:07.048Z,95.00
2017-09-25T05:54:34.711Z,95.00
2017-09-25T05:57:04.633Z,94.90
2017-09-25T05:59:32.204Z,94.90
2017-09-25T06:02:01.487Z,94.90
2017-09-25T06:04:29.149Z,94.90
2017-09-25T06:06:56.811Z,94.90
2017-09-25T06:09:24.406Z,95.00
2017-09-25T06:11:51.983Z,95.00
2017-09-25T06:14:19.580Z,94.90
2017-09-25T06:16:47.153Z,94.70
2017-09-25T06:19:14.805Z,94.50
2017-09-25T06:21:42.376Z,94.60
2017-09-25T06:24:09.978Z,94.70
2017-09-25T06:26:37.556Z,94.80
2017-09-25T06:29:05.169Z,94.70
2017-09-25T06:31:32.768Z,94.70
2017-09-25T06:34:02.821Z,94.60
2017-09-25T06:36:30.608Z,94.60
2017-09-25T06:38:58.180Z,94.60
2017-09-25T06:41:26.530Z,94.70
2017-09-25T06:43:54.212Z,94.40
2017-09-25T06:46:21.881Z,94.60
2017-09-25T06:48:49.472Z,94.80
2017-09-25T06:51:17.056Z,94.80
2017-09-25T06:53:44.652Z,95.00
2017-09-25T06:56:12.320Z,95.00
2017-09-25T06:58:39.908Z,95.20
2017-09-25T07:01:08.248Z,95.20
2017-09-25T07:03:35.849Z,95.10
2017-09-25T07:06:04.791Z,95.10
2017-09-25T07:08:32.580Z,95.10
2017-09-25T07:11:01.071Z,95.20
2017-09-25T07:13:29.412Z,95.40
2017-09-25T07:15:57.009Z,95.20
2017-09-25T07:18:25.471Z,95.60
2017-09-25T07:20:53.044Z,95.40
2017-09-25T07:23:20.618Z,95.50
2017-09-25T07:25:48.984Z,95.40
2017-09-25T07:28:17.324Z,95.40
2017-09-25T07:30:44.916Z,95.40
2017-09-25T07:33:12.584Z,95.40
2017-09-25T07:35:40.955Z,95.20
2017-09-25T07:38:08.532Z,95.20
2017-09-25T07:40:36.113Z,95.20
2017-09-25T07:43:04.968Z,95.30
2017-09-25T07:45:32.544Z,95.30
2017-09-25T07:48:00.141Z,95.20
2017-09-25T07:50:27.717Z,94.90
2017-09-25T07:52:55.333Z,94.60
2017-09-25T07:55:23.672Z,94.60
2017-09-25T07:57:51.243Z,94.60
2017-09-25T08:00:18.924Z,94.50
2017-09-25T08:02:47.259Z,94.40
2017-09-25T08:05:14.854Z,94.50
2017-09-25T08:07:42.428Z,94.30
2017-09-25T08:10:10.036Z,94.10
2017-09-25T08:12:37.603Z,94.00
2017-09-25T08:15:05.177Z,93.90
2017-09-25T08:17:32.771Z,93.80
2017-09-25T08:20:02.660Z,93.80
2017-09-25T08:22:30.256Z,93.80
2017-09-25T08:24:58.664Z,93.30
2017-09-25T08:27:26.388Z,93.30
2017-09-25T08:29:53.956Z,93.10
2017-09-25T08:32:21.533Z,93.00
2017-09-25T08:34:49.893Z,93.30
2017-09-25T08:37:17.468Z,93.30
2017-09-25T08:39:45.823Z,93.50
2017-09-25T08:42:13.423Z,93.50
2017-09-25T08:44:41.037Z,93.30
2017-09-25T08:47:08.608Z,93.30
2017-09-25T08:49:36.177Z,93.00
2017-09-25T08:52:04.549Z,92.90
2017-09-25T08:54:32.124Z,92.90
2017-09-25T08:57:01.416Z,92.70
2017-09-25T08:59:28.993Z,92.70
2017-09-25T09:01:57.368Z,92.40
2017-09-25T09:04:25.708Z,92.10
2017-09-25T09:06:53.291Z,92.10
2017-09-25T09:09:20.886Z,92.50
2017-09-25T09:11:48.481Z,92.40
2017-09-25T09:14:16.051Z,92.50
2017-09-25T09:16:43.640Z,92.80
2017-09-25T09:19:11.297Z,92.80
2017-09-25T09:21:38.988Z,93.10
2017-09-25T09:24:07.341Z,93.10
2017-09-25T09:26:36.440Z,93.10
2017-09-25T09:29:04.784Z,93.20
2017-09-25T09:31:32.476Z,93.20
2017-09-25T09:34:00.976Z,93.10
2017-09-25T09:36:29.748Z,92.40
2017-09-25T09:38:58.827Z,92.10
2017-09-25T09:41:26.412Z,92.00
2017-09-25T09:43:54.776Z,91.50
2017-09-25T09:46:23.121Z,91.70
2017-09-25T09:48:50.938Z,91.70
2017-09-25T09:51:18.508Z,91.10
2017-09-25T09:53:46.869Z,90.60
2017-09-25T09:56:14.436Z,90.60
2017-09-25T09:58:42.395Z,91.00
2017-09-25T10:01:09.968Z,91.00
2017-09-25T10:03:37.625Z,88.90
2017-09-25T10:06:05.288Z,88.50
2017-09-25T10:08:32.947Z,87.00
2017-09-25T10:11:02.733Z,88.10
2017-09-25T10:13:31.151Z,88.00
2017-09-25T10:15:59.513Z,89.90
2017-09-25T10:18:28.588Z,90.60
2017-09-25T10:20:56.172Z,90.60
2017-09-25T10:23:23.745Z,91.00
2017-09-25T10:25:51.400Z,91.50
2017-09-25T10:28:18.978Z,92.20
2017-09-25T10:30:47.321Z,92.50
2017-09-25T10:33:14.921Z,92.50
2017-09-25T10:35:43.257Z,93.30
2017-09-25T10:38:10.945Z,93.20
2017-09-25T10:40:39.285Z,93.40
2017-09-25T10:43:06.857Z,93.40
2017-09-25T10:45:34.540Z,93.40
2017-09-25T10:48:03.081Z,93.80
2017-09-25T10:50:30.688Z,94.10
2017-09-25T10:52:59.020Z,92.20
2017-09-25T10:55:26.628Z,92.30
2017-09-25T10:57:54.224Z,90.20
2017-09-25T11:00:22.036Z,84.50
2017-09-25T11:02:49.721Z,77.50
2017-09-25T11:05:17.288Z,72.30
2017-09-25T11:07:45.664Z,71.20
2017-09-25T11:10:13.325Z,71.20
2017-09-25T11:12:40.980Z,68.70
2017-09-25T11:15:10.080Z,69.20
2017-09-25T11:17:37.652Z,69.20
2017-09-25T11:20:06.032Z,76.00
2017-09-25T11:22:34.403Z,79.10
2017-09-25T11:25:02.856Z,81.50
2017-09-25T11:27:30.440Z,81.50
2017-09-25T11:29:59.540Z,83.20
2017-09-25T11:32:27.925Z,83.60
2017-09-25T11:34:55.497Z,83.70
2017-09-25T11:37:23.945Z,88.60
2017-09-25T11:39:51.515Z,88.50
2017-09-25T11:42:19.084Z,90.10
2017-09-25T11:44:47.445Z,91.60
2017-09-25T11:47:15.016Z,91.60
2017-09-25T11:49:42.608Z,91.50
2017-09-25T11:52:10.944Z,90.30
2017-09-25T11:54:38.561Z,90.40
2017-09-25T11:57:06.132Z,93.80
2017-09-25T11:59:33.701Z,93.00
2017-09-25T12:02:02.956Z,94.10
2017-09-25T12:04:31.292Z,94.20
2017-09-25T12:06:58.884Z,94.20
2017-09-25T12:09:26.456Z,94.90
2017-09-25T12:11:54.847Z,95.50
2017-09-25T12:14:23.184Z,95.90
2017-09-25T12:16:50.861Z,95.80
2017-09-25T12:19:19.972Z,96.30
2017-09-25T12:21:48.308Z,96.20
2017-09-25T12:24:15.909Z,96.20
2017-09-25T12:26:43.564Z,96.10
2017-09-25T12:29:11.181Z,96.00
2017-09-25T12:31:38.752Z,96.00
2017-09-25T12:34:06.337Z,95.90
2017-09-25T12:36:33.928Z,96.10
2017-09-25T12:39:02.984Z,95.80
2017-09-25T12:41:30.580Z,96.00
2017-09-25T12:43:58.932Z,95.50
2017-09-25T12:46:26.509Z,95.50
2017-09-25T12:48:54.408Z,95.50
2017-09-25T12:51:21.984Z,95.30
2017-09-25T12:53:49.597Z,95.70
2017-09-25T12:56:17.169Z,95.30
2017-09-25T12:58:45.537Z,94.70
2017-09-25T13:01:13.897Z,94.80
2017-09-25T13:03:41.472Z,94.80
2017-09-25T13:06:09.140Z,94.20
2017-09-25T13:08:36.716Z,94.20
2017-09-25T13:11:05.049Z,93.80
2017-09-25T13:13:32.741Z,93.80
2017-09-25T13:16:02.732Z,93.80
2017-09-25T13:18:30.416Z,93.70
2017-09-25T13:20:58.800Z,93.60
2017-09-25T13:23:26.437Z,93.60
2017-09-25T13:25:54.007Z,93.20
2017-09-25T13:28:22.051Z,93.10
2017-09-25T13:30:49.922Z,93.40
2017-09-25T13:33:18.320Z,93.50
2017-09-25T13:35:45.906Z,93.50
2017-09-25T13:38:13.468Z,93.30
2017-09-25T13:40:41.852Z,93.70
2017-09-25T13:43:10.225Z,93.30
2017-09-25T13:45:38.568Z,92.20
2017-09-25T13:48:06.162Z,92.10
2017-09-25T13:50:33.728Z,92.20
2017-09-25T13:53:03.053Z,91.70
2017-09-25T13:55:30.615Z,92.10
2017-09-25T13:57:58.220Z,92.20
2017-09-25T14:02:58.700Z,92.20
2017-09-25T14:05:27.084Z,91.60
2017-09-25T14:07:55.464Z,90.80
2017-09-25T14:10:23.869Z,90.70
2017-09-25T14:12:51.487Z,90.60
2017-09-25T14:15:19.129Z,90.90
2017-09-25T14:17:46.772Z,90.10
2017-09-25T14:20:14.437Z,89.20
2017-09-25T14:22:42.060Z,89.30
2017-09-25T14:25:10.476Z,90.50
2017-09-25T14:27:38.117Z,90.50
2017-09-25T14:30:05.741Z,90.00
2017-09-25T14:32:34.151Z,90.70
2017-09-25T14:35:03.077Z,90.70
2017-09-25T14:37:30.741Z,90.10
2017-09-25T14:39:58.360Z,90.00
2017-09-25T14:42:26.749Z,87.70
2017-09-25T14:44:55.156Z,87.30
2017-09-25T14:47:22.820Z,87.30
2017-09-25T14:49:50.463Z,84.50
2017-09-25T14:52:18.140Z,84.50
2017-09-25T14:54:45.808Z,83.10
2017-09-25T14:57:13.436Z,80.60
2017-09-25T14:59:42.059Z,78.60
2017-09-25T15:02:09.702Z,78.50
2017-09-25T15:04:37.325Z,80.90
2017-09-25T15:07:05.259Z,79.10
2017-09-25T15:09:32.899Z,74.70
2017-09-25T15:12:01.403Z,74.10
2017-09-25T15:14:29.048Z,73.10
2017-09-25T15:16:56.702Z,68.20
2017-09-25T15:19:24.348Z,71.00
2017-09-25T15:21:52.731Z,72.40
2017-09-25T15:24:21.132Z,75.80
2017-09-25T15:26:48.831Z,75.80
2017-09-25T15:29:16.569Z,77.50
2017-09-25T15:31:44.791Z,78.30
2017-09-25T15:34:12.501Z,80.80
2017-09-25T15:36:40.489Z,83.00
2017-09-25T15:39:08.135Z,83.80
2017-09-25T15:41:35.805Z,86.60
2017-09-25T15:44:03.820Z,87.80
2017-09-25T15:46:31.495Z,87.40
2017-09-25T15:48:59.886Z,88.20
2017-09-25T15:51:28.291Z,90.00
2017-09-25T15:53:55.936Z,89.90
2017-09-25T15:56:23.560Z,90.40
2017-09-25T15:58:51.203Z,91.10
2017-09-25T16:01:18.828Z,91.20
2017-09-25T16:03:46.496Z,91.70
2017-09-25T16:06:14.127Z,91.90
2017-09-25T16:08:42.512Z,91.60
2017-09-25T16:11:10.928Z,91.70
2017-09-25T16:13:38.591Z,91.60
2017-09-25T16:16:06.237Z,92.30
2017-09-25T16:18:33.881Z,92.30
2017-09-25T16:21:03.028Z,92.30
2017-09-25T16:23:30.676Z,92.40
2017-09-25T16:25:58.322Z,92.70
2017-09-25T16:28:26.005Z,93.10
2017-09-25T16:30:53.632Z,93.30
2017-09-25T16:33:22.044Z,93.70
2017-09-25T16:35:49.673Z,93.70
2017-09-25T16:38:18.112Z,93.70
2017-09-25T16:40:45.736Z,93.70
2017-09-25T16:43:13.413Z,93.90
2017-09-25T16:45:41.072Z,93.80
2017-09-25T16:48:08.695Z,94.10
2017-09-25T16:50:37.104Z,94.30
2017-09-25T16:53:04.737Z,94.30
2017-09-25T16:55:33.168Z,94.50
2017-09-25T16:58:02.025Z,94.70
2017-09-25T17:00:29.651Z,94.70
2017-09-25T17:02:57.388Z,94.80
2017-09-25T17:05:25.013Z,94.70
2017-09-25T17:07:53.049Z,94.70
2017-09-25T17:10:20.681Z,94.80
2017-09-25T17:12:48.347Z,94.60
2017-09-25T17:15:15.975Z,94.60
2017-09-25T17:17:43.601Z,94.60
2017-09-25T17:20:11.260Z,94.60
2017-09-25T17:22:38.888Z,94.70
2017-09-25T17:25:08.145Z,94.70
2017-09-25T17:27:36.545Z,94.80
2017-09-25T17:30:04.216Z,94.80
2017-09-25T17:32:31.851Z,94.90
2017-09-25T17:35:01.164Z,95.20
2017-09-25T17:37:28.824Z,95.10
2017-09-25T17:39:57.205Z,95.40
2017-09-25T17:42:25.712Z,95.40
2017-09-25T17:44:53.346Z,95.40
2017-09-25T17:47:21.789Z,95.60
2017-09-25T17:49:49.412Z,95.60
2017-09-25T17:52:17.035Z,95.60
2017-09-25T17:54:45.440Z,95.80
2017-09-25T17:57:13.081Z,95.70
2017-09-25T17:59:41.503Z,95.70
2017-09-25T18:02:09.133Z,95.70
2017-09-25T18:04:37.565Z,95.80
2017-09-25T18:07:05.208Z,95.80
2017-09-25T18:09:32.840Z,95.90
2017-09-25T18:12:02.776Z,96.00
2017-09-25T18:14:30.440Z,96.00
2017-09-25T18:16:58.088Z,96.00
2017-09-25T18:19:25.714Z,96.10
2017-09-25T18:21:53.376Z,96.00
2017-09-25T18:24:21.004Z,96.10
2017-09-25T18:26:48.639Z,96.30
2017-09-25T18:29:16.276Z,96.30
2017-09-25T18:31:44.700Z,96.50
2017-09-25T18:34:12.348Z,96.50
2017-09-25T18:36:39.973Z,96.50
2017-09-25T18:39:07.640Z,96.70
2017-09-25T18:41:35.264Z,96.80
2017-09-25T18:44:04.940Z,96.80
2017-09-25T18:46:32.620Z,96.80
2017-09-25T18:49:01.235Z,96.80
2017-09-25T18:51:28.883Z,96.80
2017-09-25T18:53:57.252Z,96.80
2017-09-25T18:56:24.924Z,96.90
2017-09-25T18:58:52.556Z,96.90
2017-09-25T19:01:20.176Z,97.00
2017-09-25T19:03:48.588Z,96.80
2017-09-25T19:06:17.028Z,96.80
2017-09-25T19:08:44.669Z,96.70
2017-09-25T19:11:12.297Z,96.70
2017-09-25T19:13:39.964Z,96.60
2017-09-25T19:16:07.592Z,96.60
2017-09-25T19:18:35.221Z,96.50
2017-09-25T19:21:04.948Z,96.50
2017-09-25T19:23:32.581Z,96.40
2017-09-25T19:26:01.168Z,96.40
2017-09-25T19:28:28.827Z,96.30
2017-09-25T19:30:56.591Z,96.20
2017-09-25T19:33:24.220Z,96.20
2017-09-25T19:35:52.608Z,96.40
2017-09-25T19:38:20.259Z,96.40
2017-09-25T19:40:48.652Z,96.40
2017-09-25T19:43:16.295Z,96.40
2017-09-25T19:45:44.684Z,96.70
2017-09-25T19:48:13.680Z,96.40
2017-09-25T19:53:41.515Z,96.20
2017-09-25T19:56:09.379Z,96.20
2017-09-25T19:58:37.539Z,96.10
2017-09-25T20:01:05.191Z,95.90
2017-09-25T20:03:32.812Z,95.90
2017-09-25T20:06:02.152Z,95.90
2017-09-25T20:08:29.780Z,95.90
2017-09-25T20:11:14.107Z,96.00
2017-09-25T20:13:41.739Z,96.00
2017-09-25T20:19:15.744Z,96.30
2017-09-25T20:21:43.403Z,96.30
2017-09-25T20:24:11.787Z,96.30
2017-09-25T20:26:40.176Z,96.20
2017-09-25T20:29:07.817Z,96.20
2017-09-25T20:31:36.205Z,96.00
2017-09-25T20:34:04.823Z,96.00
2017-09-25T20:36:32.448Z,95.90
2017-09-25T20:39:01.812Z,95.90
2017-09-25T20:41:39.340Z,95.80
2017-09-25T20:44:07.785Z,95.90
2017-09-25T20:46:35.412Z,95.60
2017-09-25T20:49:04.828Z,95.60
2017-09-25T20:51:32.472Z,95.50
2017-09-25T20:54:00.091Z,95.50
2017-09-25T20:56:27.739Z,95.60
2017-09-25T20:58:55.364Z,95.80
2017-09-25T21:01:23.175Z,96.00
2017-09-25T21:03:50.908Z,95.90
2017-09-25T21:06:18.565Z,95.80
2017-09-25T21:08:46.216Z,95.80
2017-09-25T21:11:13.891Z,95.70
2017-09-25T21:13:41.559Z,95.70
2017-09-25T21:16:09.185Z,95.80
2017-09-25T21:18:36.847Z,95.80
2017-09-25T21:21:05.232Z,96.00
2017-09-25T21:23:33.620Z,96.20
2017-09-25T21:29:04.784Z,96.30
2017-09-25T21:31:33.224Z,96.50
2017-09-25T21:34:02.867Z,96.40
2017-09-25T21:36:31.277Z,96.20
2017-09-25T21:38:59.467Z,96.20
2017-09-25T21:41:27.199Z,96.40
2017-09-25T21:43:55.088Z,96.50
2017-09-25T21:46:22.719Z,96.40
2017-09-25T21:48:51.166Z,96.60
2017-09-25T21:51:18.905Z,96.60
2017-09-25T21:53:46.559Z,96.70
2017-09-25T21:56:14.223Z,96.90
2017-09-25T21:58:41.894Z,97.10
2017-09-25T22:01:09.549Z,97.10
2017-09-25T22:03:37.212Z,97.10
2017-09-25T22:06:04.865Z,97.20
2017-09-25T22:08:32.500Z,97.10
2017-09-25T22:11:01.836Z,97.20
2017-09-25T22:13:29.509Z,97.10
2017-09-25T22:15:57.432Z,97.10
2017-09-25T22:18:25.824Z,97.20
2017-09-25T22:20:54.048Z,97.20
2017-09-25T22:23:21.703Z,97.20
2017-09-25T22:25:49.351Z,97.20
2017-09-25T22:28:17.582Z,97.20
2017-09-25T22:30:45.976Z,97.10
2017-09-25T22:33:14.415Z,97.20
2017-09-25T22:35:42.036Z,97.10
2017-09-25T22:38:09.660Z,97.40
2017-09-25T22:40:37.312Z,97.40
2017-09-25T22:46:07.533Z,97.30
2017-09-25T22:48:35.165Z,97.40
2017-09-25T22:51:04.815Z,97.20
2017-09-25T22:53:32.439Z,97.20
2017-09-25T22:56:00.996Z,97.30
2017-09-25T22:58:29.412Z,97.30
2017-09-25T23:00:57.072Z,97.30
2017-09-25T23:03:24.739Z,97.30
2017-09-25T23:05:56.332Z,97.20
2017-09-25T23:08:24.069Z,97.20
2017-09-25T23:10:51.964Z,97.10
2017-09-25T23:13:19.637Z,97.00
2017-09-25T23:15:47.347Z,96.90
2017-09-25T23:18:15.586Z,96.80
2017-09-25T23:20:44.723Z,96.70
2017-09-25T23:23:12.352Z,96.70
2017-09-25T23:25:40.767Z,96.70
2017-09-25T23:28:08.387Z,96.60
2017-09-25T23:30:38.796Z,96.70
2017-09-25T23:33:06.419Z,96.70
2017-09-25T23:35:34.044Z,96.60
2017-09-25T23:38:03.792Z,96.60
2017-09-25T23:40:31.423Z,96.60
2017-09-25T23:42:59.927Z,96.50
2017-09-25T23:45:27.575Z,96.50
2017-09-25T23:47:55.244Z,96.60
2017-09-25T23:50:22.863Z,96.80
2017-09-25T23:52:50.483Z,96.90
2017-09-25T23:55:18.127Z,97.00
2017-09-25T23:57:45.746Z,97.10
